Shawbury (EGOS)

METAR

EGOS 180550Z 23006KT 9999 FEW025 12/10 Q1007 BLU

QNH
1007
TEMP
12 °C
TAF

TAF TAF EGOS 171634Z 1718/1821 CNL